Ryland, Alabama
Current Conditions -  °F | °C
As of 5:55 AM on Friday 19 Dec 2014 (Local Time) from KMDQ Reporting Station
Haze Haze  
Wind Chill: -2°   Ceiling: 3600
Heat Index:   Visibility: 5mi
Dew Point:   Wind: 6mph
Humidity: 93%   Direction: 20°NNE
Pressure: 30.21"   Gusts: NA
Location:  34.77°N, 86.48°W
Report Text: KMDQ 191155Z AUTO 02005KT 5SM BR OVC036 01/00 A3021 RMK AO2 LTG DSNT SW
Loading
Personal Weather Stations






























Interactive Weather Map New forecast layout! Learn more

10-Day Weather Forecast

Advertisements
Track Severe Weather on mobile